sensor_id;sensor_type;location;lat;lon;timestamp;P1;durP1;ratioP1;P2;durP2;ratioP2
24273;SDS011;12392;42.678;23.380;2023-01-19T00:02:12;18.45;;;2.40;;
24273;SDS011;12392;42.678;23.380;2023-01-19T00:04:38;20.20;;;2.78;;
24273;SDS011;12392;42.678;23.380;2023-01-19T00:07:04;5.78;;;1.48;;
24273;SDS011;12392;42.678;23.380;2023-01-19T00:09:31;11.70;;;2.10;;
24273;SDS011;12392;42.678;23.380;2023-01-19T00:11:57;15.68;;;1.70;;
24273;SDS011;12392;42.678;23.380;2023-01-19T00:14:23;19.67;;;2.15;;
24273;SDS011;12392;42.678;23.380;2023-01-19T00:16:49;12.30;;;1.88;;
24273;SDS011;12392;42.678;23.380;2023-01-19T00:19:15;17.50;;;2.60;;
24273;SDS011;12392;42.678;23.380;2023-01-19T00:21:40;17.48;;;3.25;;
24273;SDS011;12392;42.678;23.380;2023-01-19T00:24:06;16.75;;;3.75;;
24273;SDS011;12392;42.678;23.380;2023-01-19T00:26:32;21.95;;;3.67;;
24273;SDS011;12392;42.678;23.380;2023-01-19T00:28:58;16.33;;;2.67;;
24273;SDS011;12392;42.678;23.380;2023-01-19T00:31:23;22.33;;;3.42;;
24273;SDS011;12392;42.678;23.380;2023-01-19T00:33:49;20.02;;;3.55;;
24273;SDS011;12392;42.678;23.380;2023-01-19T00:36:16;27.25;;;4.32;;
24273;SDS011;12392;42.678;23.380;2023-01-19T00:38:42;18.63;;;4.72;;
24273;SDS011;12392;42.678;23.380;2023-01-19T00:41:07;27.95;;;4.32;;
24273;SDS011;12392;42.678;23.380;2023-01-19T00:43:33;17.02;;;2.05;;
24273;SDS011;12392;42.678;23.380;2023-01-19T00:45:59;18.08;;;2.53;;
24273;SDS011;12392;42.678;23.380;2023-01-19T00:48:25;17.52;;;2.17;;
24273;SDS011;12392;42.678;23.380;2023-01-19T00:50:50;14.45;;;2.30;;
24273;SDS011;12392;42.678;23.380;2023-01-19T00:53:16;24.60;;;2.40;;
24273;SDS011;12392;42.678;23.380;2023-01-19T00:55:42;16.77;;;1.95;;
24273;SDS011;12392;42.678;23.380;2023-01-19T00:58:07;19.35;;;2.83;;
24273;SDS011;12392;42.678;23.380;2023-01-19T01:00:33;16.05;;;1.85;;
24273;SDS011;12392;42.678;23.380;2023-01-19T01:02:59;14.63;;;2.72;;
24273;SDS011;12392;42.678;23.380;2023-01-19T01:05:25;12.40;;;2.83;;
24273;SDS011;12392;42.678;23.380;2023-01-19T01:07:50;23.02;;;2.40;;
24273;SDS011;12392;42.678;23.380;2023-01-19T01:10:21;18.65;;;2.17;;
24273;SDS011;12392;42.678;23.380;2023-01-19T01:12:48;15.10;;;2.33;;
24273;SDS011;12392;42.678;23.380;2023-01-19T01:15:14;23.27;;;2.55;;
24273;SDS011;12392;42.678;23.380;2023-01-19T01:17:40;15.90;;;2.05;;
24273;SDS011;12392;42.678;23.380;2023-01-19T01:20:15;13.60;;;1.73;;
24273;SDS011;12392;42.678;23.380;2023-01-19T01:22:43;17.10;;;1.60;;
24273;SDS011;12392;42.678;23.380;2023-01-19T01:25:13;12.70;;;1.85;;
24273;SDS011;12392;42.678;23.380;2023-01-19T01:27:39;14.90;;;2.00;;
24273;SDS011;12392;42.678;23.380;2023-01-19T01:30:06;15.20;;;2.08;;
24273;SDS011;12392;42.678;23.380;2023-01-19T01:32:33;19.88;;;1.95;;
24273;SDS011;12392;42.678;23.380;2023-01-19T01:34:58;14.90;;;1.95;;
24273;SDS011;12392;42.678;23.380;2023-01-19T01:37:24;18.13;;;2.75;;
24273;SDS011;12392;42.678;23.380;2023-01-19T01:39:50;10.77;;;1.30;;
24273;SDS011;12392;42.678;23.380;2023-01-19T01:42:16;10.70;;;1.25;;
24273;SDS011;12392;42.678;23.380;2023-01-19T01:44:48;18.77;;;2.22;;
24273;SDS011;12392;42.678;23.380;2023-01-19T01:47:23;23.05;;;2.17;;
24273;SDS011;12392;42.678;23.380;2023-01-19T01:49:54;18.88;;;1.27;;
24273;SDS011;12392;42.678;23.380;2023-01-19T01:52:45;9.57;;;1.65;;
24273;SDS011;12392;42.678;23.380;2023-01-19T01:55:19;17.98;;;2.22;;
24273;SDS011;12392;42.678;23.380;2023-01-19T01:57:47;16.23;;;1.42;;
24273;SDS011;12392;42.678;23.380;2023-01-19T02:00:15;21.33;;;1.70;;
24273;SDS011;12392;42.678;23.380;2023-01-19T02:02:41;9.32;;;1.13;;
24273;SDS011;12392;42.678;23.380;2023-01-19T02:10:44;12.57;;;2.17;;
24273;SDS011;12392;42.678;23.380;2023-01-19T02:13:29;11.50;;;1.27;;
24273;SDS011;12392;42.678;23.380;2023-01-19T02:16:00;6.07;;;1.15;;
24273;SDS011;12392;42.678;23.380;2023-01-19T02:18:27;19.92;;;1.10;;
24273;SDS011;12392;42.678;23.380;2023-01-19T02:23:32;8.25;;;1.10;;
24273;SDS011;12392;42.678;23.380;2023-01-19T02:26:09;10.82;;;1.20;;
24273;SDS011;12392;42.678;23.380;2023-01-19T02:28:37;19.80;;;1.88;;
24273;SDS011;12392;42.678;23.380;2023-01-19T02:31:05;14.15;;;1.60;;
24273;SDS011;12392;42.678;23.380;2023-01-19T02:33:31;13.30;;;1.17;;
24273;SDS011;12392;42.678;23.380;2023-01-19T02:35:56;10.55;;;1.55;;
24273;SDS011;12392;42.678;23.380;2023-01-19T02:38:23;12.70;;;1.38;;
24273;SDS011;12392;42.678;23.380;2023-01-19T02:40:51;13.05;;;1.40;;
24273;SDS011;12392;42.678;23.380;2023-01-19T02:43:19;17.88;;;1.38;;
24273;SDS011;12392;42.678;23.380;2023-01-19T02:45:45;6.97;;;1.23;;
24273;SDS011;12392;42.678;23.380;2023-01-19T02:48:12;15.93;;;1.13;;
24273;SDS011;12392;42.678;23.380;2023-01-19T02:50:42;13.95;;;1.80;;
24273;SDS011;12392;42.678;23.380;2023-01-19T03:01:22;15.40;;;1.48;;
24273;SDS011;12392;42.678;23.380;2023-01-19T03:07:16;16.90;;;1.55;;
24273;SDS011;12392;42.678;23.380;2023-01-19T03:09:52;9.52;;;1.15;;
24273;SDS011;12392;42.678;23.380;2023-01-19T03:12:36;8.70;;;2.20;;
24273;SDS011;12392;42.678;23.380;2023-01-19T03:15:49;15.88;;;1.65;;
24273;SDS011;12392;42.678;23.380;2023-01-19T03:18:03;14.48;;;1.23;;
24273;SDS011;12392;42.678;23.380;2023-01-19T03:20:32;14.45;;;1.73;;
24273;SDS011;12392;42.678;23.380;2023-01-19T03:23:03;11.68;;;2.10;;
24273;SDS011;12392;42.678;23.380;2023-01-19T03:25:32;10.07;;;1.48;;
24273;SDS011;12392;42.678;23.380;2023-01-19T03:28:00;13.38;;;1.90;;
24273;SDS011;12392;42.678;23.380;2023-01-19T03:30:27;15.80;;;1.63;;
24273;SDS011;12392;42.678;23.380;2023-01-19T03:32:55;13.73;;;2.20;;
24273;SDS011;12392;42.678;23.380;2023-01-19T03:35:25;9.18;;;1.13;;
24273;SDS011;12392;42.678;23.380;2023-01-19T03:37:54;18.13;;;1.90;;
24273;SDS011;12392;42.678;23.380;2023-01-19T03:40:22;16.33;;;2.05;;
24273;SDS011;12392;42.678;23.380;2023-01-19T03:42:50;17.95;;;2.42;;
24273;SDS011;12392;42.678;23.380;2023-01-19T03:45:16;14.10;;;1.27;;
24273;SDS011;12392;42.678;23.380;2023-01-19T03:47:42;14.77;;;1.58;;
24273;SDS011;12392;42.678;23.380;2023-01-19T03:50:10;11.10;;;1.63;;
24273;SDS011;12392;42.678;23.380;2023-01-19T03:52:39;10.80;;;1.33;;
24273;SDS011;12392;42.678;23.380;2023-01-19T03:55:04;23.85;;;2.13;;
24273;SDS011;12392;42.678;23.380;2023-01-19T03:57:31;41.50;;;3.25;;
24273;SDS011;12392;42.678;23.380;2023-01-19T03:59:56;19.50;;;2.30;;
24273;SDS011;12392;42.678;23.380;2023-01-19T04:02:22;12.10;;;1.92;;
24273;SDS011;12392;42.678;23.380;2023-01-19T04:04:48;22.77;;;2.08;;
24273;SDS011;12392;42.678;23.380;2023-01-19T04:07:14;13.38;;;1.90;;
24273;SDS011;12392;42.678;23.380;2023-01-19T04:09:40;18.58;;;1.88;;
24273;SDS011;12392;42.678;23.380;2023-01-19T04:12:06;15.45;;;2.53;;
24273;SDS011;12392;42.678;23.380;2023-01-19T04:14:31;20.98;;;3.78;;
24273;SDS011;12392;42.678;23.380;2023-01-19T04:16:57;15.27;;;2.33;;
24273;SDS011;12392;42.678;23.380;2023-01-19T04:19:23;14.05;;;2.47;;
24273;SDS011;12392;42.678;23.380;2023-01-19T04:21:49;19.13;;;2.58;;
24273;SDS011;12392;42.678;23.380;2023-01-19T04:24:15;16.50;;;3.05;;
24273;SDS011;12392;42.678;23.380;2023-01-19T04:26:41;24.77;;;2.90;;
24273;SDS011;12392;42.678;23.380;2023-01-19T04:29:07;27.05;;;2.28;;
24273;SDS011;12392;42.678;23.380;2023-01-19T04:31:34;23.92;;;3.05;;
24273;SDS011;12392;42.678;23.380;2023-01-19T04:34:01;24.83;;;2.75;;
24273;SDS011;12392;42.678;23.380;2023-01-19T04:36:27;21.27;;;2.75;;
24273;SDS011;12392;42.678;23.380;2023-01-19T04:38:53;15.65;;;2.38;;
24273;SDS011;12392;42.678;23.380;2023-01-19T04:41:19;19.52;;;2.75;;
24273;SDS011;12392;42.678;23.380;2023-01-19T04:43:45;17.75;;;2.63;;
24273;SDS011;12392;42.678;23.380;2023-01-19T04:46:11;20.75;;;3.25;;
24273;SDS011;12392;42.678;23.380;2023-01-19T04:48:38;14.32;;;2.63;;
24273;SDS011;12392;42.678;23.380;2023-01-19T04:51:03;18.52;;;2.38;;
24273;SDS011;12392;42.678;23.380;2023-01-19T04:53:29;22.58;;;3.05;;
24273;SDS011;12392;42.678;23.380;2023-01-19T04:55:55;20.65;;;2.72;;
24273;SDS011;12392;42.678;23.380;2023-01-19T04:58:21;28.33;;;3.47;;
24273;SDS011;12392;42.678;23.380;2023-01-19T05:00:47;26.55;;;3.28;;
24273;SDS011;12392;42.678;23.380;2023-01-19T05:03:13;13.60;;;2.28;;
24273;SDS011;12392;42.678;23.380;2023-01-19T05:05:38;18.98;;;3.25;;
24273;SDS011;12392;42.678;23.380;2023-01-19T05:08:04;22.25;;;2.65;;
24273;SDS011;12392;42.678;23.380;2023-01-19T05:10:30;25.77;;;3.65;;
24273;SDS011;12392;42.678;23.380;2023-01-19T05:12:55;21.45;;;3.00;;
24273;SDS011;12392;42.678;23.380;2023-01-19T05:15:21;22.02;;;2.50;;
24273;SDS011;12392;42.678;23.380;2023-01-19T05:17:47;35.75;;;4.25;;
24273;SDS011;12392;42.678;23.380;2023-01-19T05:20:13;23.80;;;2.17;;
24273;SDS011;12392;42.678;23.380;2023-01-19T05:22:39;17.75;;;3.05;;
24273;SDS011;12392;42.678;23.380;2023-01-19T05:25:05;25.92;;;2.75;;
24273;SDS011;12392;42.678;23.380;2023-01-19T05:27:32;34.35;;;3.03;;
24273;SDS011;12392;42.678;23.380;2023-01-19T05:29:58;24.65;;;2.95;;
24273;SDS011;12392;42.678;23.380;2023-01-19T05:32:24;23.08;;;2.72;;
24273;SDS011;12392;42.678;23.380;2023-01-19T05:34:50;26.58;;;2.78;;
24273;SDS011;12392;42.678;23.380;2023-01-19T05:37:15;19.63;;;3.15;;
24273;SDS011;12392;42.678;23.380;2023-01-19T05:39:41;17.27;;;2.55;;
24273;SDS011;12392;42.678;23.380;2023-01-19T05:42:07;24.70;;;3.55;;
24273;SDS011;12392;42.678;23.380;2023-01-19T05:44:32;15.60;;;3.08;;
24273;SDS011;12392;42.678;23.380;2023-01-19T05:46:58;21.25;;;2.72;;
24273;SDS011;12392;42.678;23.380;2023-01-19T05:49:24;19.73;;;2.10;;
24273;SDS011;12392;42.678;23.380;2023-01-19T05:51:49;26.88;;;3.00;;
24273;SDS011;12392;42.678;23.380;2023-01-19T05:54:15;18.48;;;2.30;;
24273;SDS011;12392;42.678;23.380;2023-01-19T05:56:41;24.23;;;3.35;;
24273;SDS011;12392;42.678;23.380;2023-01-19T05:59:07;24.52;;;3.50;;
24273;SDS011;12392;42.678;23.380;2023-01-19T06:01:32;15.27;;;2.25;;
24273;SDS011;12392;42.678;23.380;2023-01-19T06:04:02;20.20;;;3.35;;
24273;SDS011;12392;42.678;23.380;2023-01-19T06:06:28;33.85;;;3.95;;
24273;SDS011;12392;42.678;23.380;2023-01-19T06:08:54;23.25;;;3.13;;
24273;SDS011;12392;42.678;23.380;2023-01-19T06:11:20;19.80;;;2.78;;
24273;SDS011;12392;42.678;23.380;2023-01-19T06:13:46;28.48;;;3.42;;
24273;SDS011;12392;42.678;23.380;2023-01-19T06:16:13;27.50;;;3.28;;
24273;SDS011;12392;42.678;23.380;2023-01-19T06:18:39;27.73;;;3.15;;
24273;SDS011;12392;42.678;23.380;2023-01-19T06:21:05;20.55;;;4.50;;
24273;SDS011;12392;42.678;23.380;2023-01-19T06:23:32;23.17;;;3.25;;
24273;SDS011;12392;42.678;23.380;2023-01-19T06:25:58;26.27;;;3.55;;
24273;SDS011;12392;42.678;23.380;2023-01-19T06:28:24;22.02;;;3.22;;
24273;SDS011;12392;42.678;23.380;2023-01-19T06:30:50;17.63;;;3.92;;
24273;SDS011;12392;42.678;23.380;2023-01-19T06:33:17;30.98;;;3.20;;
24273;SDS011;12392;42.678;23.380;2023-01-19T06:35:43;25.67;;;2.88;;
24273;SDS011;12392;42.678;23.380;2023-01-19T06:38:13;25.88;;;3.25;;
24273;SDS011;12392;42.678;23.380;2023-01-19T06:40:41;30.02;;;4.55;;
24273;SDS011;12392;42.678;23.380;2023-01-19T06:43:07;21.50;;;3.58;;
24273;SDS011;12392;42.678;23.380;2023-01-19T06:45:33;27.83;;;3.35;;
24273;SDS011;12392;42.678;23.380;2023-01-19T06:47:59;33.83;;;6.10;;
24273;SDS011;12392;42.678;23.380;2023-01-19T06:50:24;19.38;;;3.33;;
24273;SDS011;12392;42.678;23.380;2023-01-19T06:52:50;15.93;;;2.67;;
24273;SDS011;12392;42.678;23.380;2023-01-19T06:55:16;27.75;;;3.00;;
24273;SDS011;12392;42.678;23.380;2023-01-19T06:57:42;29.83;;;3.92;;
24273;SDS011;12392;42.678;23.380;2023-01-19T07:00:09;15.32;;;2.78;;
24273;SDS011;12392;42.678;23.380;2023-01-19T07:02:36;27.63;;;4.65;;
24273;SDS011;12392;42.678;23.380;2023-01-19T07:05:02;39.72;;;3.30;;
24273;SDS011;12392;42.678;23.380;2023-01-19T07:07:30;17.88;;;3.50;;
24273;SDS011;12392;42.678;23.380;2023-01-19T07:09:56;21.02;;;3.25;;
24273;SDS011;12392;42.678;23.380;2023-01-19T07:12:22;21.67;;;3.47;;
24273;SDS011;12392;42.678;23.380;2023-01-19T07:14:48;29.23;;;4.00;;
24273;SDS011;12392;42.678;23.380;2023-01-19T07:17:14;24.67;;;3.35;;
24273;SDS011;12392;42.678;23.380;2023-01-19T07:19:39;31.13;;;3.95;;
24273;SDS011;12392;42.678;23.380;2023-01-19T07:22:05;24.20;;;3.35;;
24273;SDS011;12392;42.678;23.380;2023-01-19T07:24:31;18.42;;;3.25;;
24273;SDS011;12392;42.678;23.380;2023-01-19T07:26:58;17.30;;;3.15;;
24273;SDS011;12392;42.678;23.380;2023-01-19T07:29:24;22.00;;;3.60;;
24273;SDS011;12392;42.678;23.380;2023-01-19T07:31:49;29.13;;;3.17;;
24273;SDS011;12392;42.678;23.380;2023-01-19T07:34:18;18.27;;;2.83;;
24273;SDS011;12392;42.678;23.380;2023-01-19T07:36:45;22.88;;;3.22;;
24273;SDS011;12392;42.678;23.380;2023-01-19T07:39:11;19.80;;;2.85;;
24273;SDS011;12392;42.678;23.380;2023-01-19T07:41:37;28.55;;;4.07;;
24273;SDS011;12392;42.678;23.380;2023-01-19T07:44:03;24.20;;;3.45;;
24273;SDS011;12392;42.678;23.380;2023-01-19T07:46:28;23.90;;;3.88;;
24273;SDS011;12392;42.678;23.380;2023-01-19T07:48:54;27.92;;;4.75;;
24273;SDS011;12392;42.678;23.380;2023-01-19T07:51:20;33.97;;;3.55;;
24273;SDS011;12392;42.678;23.380;2023-01-19T07:53:45;29.55;;;3.45;;
24273;SDS011;12392;42.678;23.380;2023-01-19T07:56:13;21.13;;;3.90;;
24273;SDS011;12392;42.678;23.380;2023-01-19T07:58:39;26.00;;;3.55;;
24273;SDS011;12392;42.678;23.380;2023-01-19T08:01:08;20.70;;;3.75;;
24273;SDS011;12392;42.678;23.380;2023-01-19T08:03:35;24.73;;;4.00;;
24273;SDS011;12392;42.678;23.380;2023-01-19T08:06:01;29.27;;;3.30;;
24273;SDS011;12392;42.678;23.380;2023-01-19T08:08:29;26.75;;;3.92;;
24273;SDS011;12392;42.678;23.380;2023-01-19T08:10:55;27.13;;;3.88;;
24273;SDS011;12392;42.678;23.380;2023-01-19T08:13:21;20.42;;;3.45;;
24273;SDS011;12392;42.678;23.380;2023-01-19T08:15:50;36.45;;;3.38;;
24273;SDS011;12392;42.678;23.380;2023-01-19T08:18:17;28.63;;;3.17;;
24273;SDS011;12392;42.678;23.380;2023-01-19T08:20:42;25.80;;;3.42;;
24273;SDS011;12392;42.678;23.380;2023-01-19T08:23:08;27.48;;;3.63;;
24273;SDS011;12392;42.678;23.380;2023-01-19T08:25:38;24.77;;;2.80;;
24273;SDS011;12392;42.678;23.380;2023-01-19T08:28:06;29.77;;;3.80;;
24273;SDS011;12392;42.678;23.380;2023-01-19T08:30:33;27.35;;;3.75;;
24273;SDS011;12392;42.678;23.380;2023-01-19T08:32:59;24.40;;;4.15;;
24273;SDS011;12392;42.678;23.380;2023-01-19T08:35:31;20.73;;;3.92;;
24273;SDS011;12392;42.678;23.380;2023-01-19T08:37:59;29.17;;;4.05;;
24273;SDS011;12392;42.678;23.380;2023-01-19T08:40:28;40.20;;;5.18;;
24273;SDS011;12392;42.678;23.380;2023-01-19T08:43:01;27.33;;;3.80;;
24273;SDS011;12392;42.678;23.380;2023-01-19T08:45:30;21.50;;;4.70;;
24273;SDS011;12392;42.678;23.380;2023-01-19T08:47:56;28.05;;;4.78;;
24273;SDS011;12392;42.678;23.380;2023-01-19T08:50:29;30.45;;;4.07;;
24273;SDS011;12392;42.678;23.380;2023-01-19T08:52:56;21.48;;;3.33;;
24273;SDS011;12392;42.678;23.380;2023-01-19T08:55:23;24.33;;;2.90;;
24273;SDS011;12392;42.678;23.380;2023-01-19T08:57:50;24.98;;;3.80;;
24273;SDS011;12392;42.678;23.380;2023-01-19T09:00:17;25.02;;;3.45;;
24273;SDS011;12392;42.678;23.380;2023-01-19T09:02:44;47.13;;;4.90;;
24273;SDS011;12392;42.678;23.380;2023-01-19T09:05:10;20.27;;;2.63;;
24273;SDS011;12392;42.678;23.380;2023-01-19T09:07:36;16.10;;;3.25;;
24273;SDS011;12392;42.678;23.380;2023-01-19T09:10:03;28.13;;;2.92;;
24273;SDS011;12392;42.678;23.380;2023-01-19T09:12:29;24.75;;;3.10;;
24273;SDS011;12392;42.678;23.380;2023-01-19T09:14:55;30.83;;;3.33;;
24273;SDS011;12392;42.678;23.380;2023-01-19T09:17:20;22.85;;;2.83;;
24273;SDS011;12392;42.678;23.380;2023-01-19T09:19:46;16.20;;;2.72;;
24273;SDS011;12392;42.678;23.380;2023-01-19T09:22:12;19.90;;;3.10;;
24273;SDS011;12392;42.678;23.380;2023-01-19T09:24:38;15.48;;;2.08;;
24273;SDS011;12392;42.678;23.380;2023-01-19T09:27:05;24.75;;;3.00;;
24273;SDS011;12392;42.678;23.380;2023-01-19T09:29:31;24.15;;;2.97;;
24273;SDS011;12392;42.678;23.380;2023-01-19T09:31:57;16.27;;;2.50;;
24273;SDS011;12392;42.678;23.380;2023-01-19T09:34:22;16.10;;;2.67;;
24273;SDS011;12392;42.678;23.380;2023-01-19T09:36:51;21.77;;;2.90;;
24273;SDS011;12392;42.678;23.380;2023-01-19T09:39:17;27.60;;;3.63;;
24273;SDS011;12392;42.678;23.380;2023-01-19T09:41:44;29.77;;;3.72;;
24273;SDS011;12392;42.678;23.380;2023-01-19T09:44:15;15.80;;;2.03;;
24273;SDS011;12392;42.678;23.380;2023-01-19T09:46:44;19.42;;;1.88;;
24273;SDS011;12392;42.678;23.380;2023-01-19T09:51:40;13.93;;;2.13;;
24273;SDS011;12392;42.678;23.380;2023-01-19T09:54:15;17.17;;;2.55;;
24273;SDS011;12392;42.678;23.380;2023-01-19T09:56:43;18.58;;;2.00;;
24273;SDS011;12392;42.678;23.380;2023-01-19T09:59:30;14.27;;;2.30;;
24273;SDS011;12392;42.678;23.380;2023-01-19T10:02:06;17.92;;;2.40;;
24273;SDS011;12392;42.678;23.380;2023-01-19T10:10:51;9.70;;;3.08;;
24273;SDS011;12392;42.678;23.380;2023-01-19T10:18:49;8.80;;;1.73;;
24273;SDS011;12392;42.678;23.380;2023-01-19T10:21:18;14.88;;;2.80;;
24273;SDS011;12392;42.678;23.380;2023-01-19T10:26:37;27.85;;;2.40;;
24273;SDS011;12392;42.678;23.380;2023-01-19T10:29:12;12.48;;;2.00;;
24273;SDS011;12392;42.678;23.380;2023-01-19T10:31:46;10.00;;;1.30;;
24273;SDS011;12392;42.678;23.380;2023-01-19T10:34:12;14.70;;;2.00;;
24273;SDS011;12392;42.678;23.380;2023-01-19T10:36:42;13.20;;;2.30;;
24273;SDS011;12392;42.678;23.380;2023-01-19T10:39:14;19.42;;;1.83;;
24273;SDS011;12392;42.678;23.380;2023-01-19T10:44:08;14.90;;;2.03;;
24273;SDS011;12392;42.678;23.380;2023-01-19T10:46:37;11.88;;;1.98;;
24273;SDS011;12392;42.678;23.380;2023-01-19T10:49:17;14.55;;;2.10;;
24273;SDS011;12392;42.678;23.380;2023-01-19T10:52:02;6.38;;;1.65;;
24273;SDS011;12392;42.678;23.380;2023-01-19T10:54:33;12.57;;;1.60;;
24273;SDS011;12392;42.678;23.380;2023-01-19T10:57:06;10.38;;;1.73;;
24273;SDS011;12392;42.678;23.380;2023-01-19T10:59:37;10.20;;;1.70;;
24273;SDS011;12392;42.678;23.380;2023-01-19T11:04:40;8.18;;;2.05;;
24273;SDS011;12392;42.678;23.380;2023-01-19T11:07:18;18.67;;;2.03;;
24273;SDS011;12392;42.678;23.380;2023-01-19T11:10:12;16.67;;;2.58;;
24273;SDS011;12392;42.678;23.380;2023-01-19T11:12:41;5.68;;;1.20;;
24273;SDS011;12392;42.678;23.380;2023-01-19T11:15:23;15.13;;;1.90;;
24273;SDS011;12392;42.678;23.380;2023-01-19T11:17:52;12.25;;;1.70;;
24273;SDS011;12392;42.678;23.380;2023-01-19T11:20:23;10.70;;;1.60;;
24273;SDS011;12392;42.678;23.380;2023-01-19T11:25:36;17.02;;;1.20;;
24273;SDS011;12392;42.678;23.380;2023-01-19T11:28:01;12.00;;;2.35;;
24273;SDS011;12392;42.678;23.380;2023-01-19T11:30:34;11.35;;;1.60;;
24273;SDS011;12392;42.678;23.380;2023-01-19T11:33:00;11.18;;;1.55;;
24273;SDS011;12392;42.678;23.380;2023-01-19T11:40:56;13.55;;;1.67;;
24273;SDS011;12392;42.678;23.380;2023-01-19T11:43:23;13.80;;;2.45;;
24273;SDS011;12392;42.678;23.380;2023-01-19T11:45:53;16.05;;;1.50;;
24273;SDS011;12392;42.678;23.380;2023-01-19T11:48:26;13.57;;;1.83;;
24273;SDS011;12392;42.678;23.380;2023-01-19T11:50:55;14.85;;;1.60;;
24273;SDS011;12392;42.678;23.380;2023-01-19T11:53:24;4.90;;;1.10;;
24273;SDS011;12392;42.678;23.380;2023-01-19T11:56:03;9.02;;;1.20;;
24273;SDS011;12392;42.678;23.380;2023-01-19T11:58:35;9.63;;;0.95;;
24273;SDS011;12392;42.678;23.380;2023-01-19T12:01:04;7.00;;;1.30;;
24273;SDS011;12392;42.678;23.380;2023-01-19T12:03:45;6.97;;;0.93;;
24273;SDS011;12392;42.678;23.380;2023-01-19T12:06:17;8.60;;;1.52;;
24273;SDS011;12392;42.678;23.380;2023-01-19T12:11:39;9.18;;;1.33;;
24273;SDS011;12392;42.678;23.380;2023-01-19T12:17:04;12.38;;;1.85;;
24273;SDS011;12392;42.678;23.380;2023-01-19T12:19:43;6.90;;;1.13;;
24273;SDS011;12392;42.678;23.380;2023-01-19T12:22:16;6.70;;;1.00;;
24273;SDS011;12392;42.678;23.380;2023-01-19T12:24:52;8.43;;;1.23;;
24273;SDS011;12392;42.678;23.380;2023-01-19T12:27:38;3.28;;;1.10;;
24273;SDS011;12392;42.678;23.380;2023-01-19T12:30:16;11.85;;;1.40;;
24273;SDS011;12392;42.678;23.380;2023-01-19T12:32:49;12.15;;;1.83;;
24273;SDS011;12392;42.678;23.380;2023-01-19T12:38:22;6.85;;;1.40;;
24273;SDS011;12392;42.678;23.380;2023-01-19T12:41:43;8.23;;;1.00;;
24273;SDS011;12392;42.678;23.380;2023-01-19T12:46:53;6.50;;;1.05;;
24273;SDS011;12392;42.678;23.380;2023-01-19T12:57:26;13.68;;;1.48;;
24273;SDS011;12392;42.678;23.380;2023-01-19T12:59:57;10.65;;;1.38;;
24273;SDS011;12392;42.678;23.380;2023-01-19T13:02:39;6.22;;;1.65;;
24273;SDS011;12392;42.678;23.380;2023-01-19T13:15:59;9.32;;;1.05;;
24273;SDS011;12392;42.678;23.380;2023-01-19T13:18:47;6.22;;;2.15;;
24273;SDS011;12392;42.678;23.380;2023-01-19T13:21:27;4.93;;;0.93;;
24273;SDS011;12392;42.678;23.380;2023-01-19T13:23:55;4.03;;;0.80;;
24273;SDS011;12392;42.678;23.380;2023-01-19T13:26:35;11.52;;;1.73;;
24273;SDS011;12392;42.678;23.380;2023-01-19T13:29:07;4.68;;;1.30;;
24273;SDS011;12392;42.678;23.380;2023-01-19T13:31:38;4.70;;;1.30;;
24273;SDS011;12392;42.678;23.380;2023-01-19T13:34:16;6.68;;;1.27;;
24273;SDS011;12392;42.678;23.380;2023-01-19T13:36:44;10.27;;;1.42;;
24273;SDS011;12392;42.678;23.380;2023-01-19T13:41:53;15.65;;;1.05;;
24273;SDS011;12392;42.678;23.380;2023-01-19T13:44:25;3.33;;;0.73;;
24273;SDS011;12392;42.678;23.380;2023-01-19T13:46:56;5.55;;;0.90;;
24273;SDS011;12392;42.678;23.380;2023-01-19T13:52:05;8.05;;;1.58;;
24273;SDS011;12392;42.678;23.380;2023-01-19T13:54:31;10.27;;;1.50;;
24273;SDS011;12392;42.678;23.380;2023-01-19T13:56:57;4.15;;;0.70;;
24273;SDS011;12392;42.678;23.380;2023-01-19T13:59:22;8.85;;;0.95;;
24273;SDS011;12392;42.678;23.380;2023-01-19T14:01:48;9.85;;;1.52;;
24273;SDS011;12392;42.678;23.380;2023-01-19T14:04:25;6.90;;;1.40;;
24273;SDS011;12392;42.678;23.380;2023-01-19T14:06:55;10.00;;;1.40;;
24273;SDS011;12392;42.678;23.380;2023-01-19T14:09:23;5.03;;;0.75;;
24273;SDS011;12392;42.678;23.380;2023-01-19T14:14:36;6.80;;;0.90;;
24273;SDS011;12392;42.678;23.380;2023-01-19T14:17:02;6.72;;;1.23;;
24273;SDS011;12392;42.678;23.380;2023-01-19T14:19:28;4.78;;;1.00;;
24273;SDS011;12392;42.678;23.380;2023-01-19T14:21:58;6.47;;;1.10;;
24273;SDS011;12392;42.678;23.380;2023-01-19T14:24:28;7.55;;;1.10;;
24273;SDS011;12392;42.678;23.380;2023-01-19T14:27:06;3.00;;;0.75;;
24273;SDS011;12392;42.678;23.380;2023-01-19T14:29:43;5.15;;;1.70;;
24273;SDS011;12392;42.678;23.380;2023-01-19T14:32:21;2.30;;;0.85;;
24273;SDS011;12392;42.678;23.380;2023-01-19T14:37:33;3.08;;;0.93;;
24273;SDS011;12392;42.678;23.380;2023-01-19T14:48:14;2.42;;;0.63;;
24273;SDS011;12392;42.678;23.380;2023-01-19T14:50:42;9.05;;;1.00;;
24273;SDS011;12392;42.678;23.380;2023-01-19T14:53:16;10.18;;;0.80;;
24273;SDS011;12392;42.678;23.380;2023-01-19T14:58:13;5.22;;;1.10;;
24273;SDS011;12392;42.678;23.380;2023-01-19T15:00:43;4.72;;;0.95;;
24273;SDS011;12392;42.678;23.380;2023-01-19T15:03:10;6.30;;;1.10;;
24273;SDS011;12392;42.678;23.380;2023-01-19T15:05:36;7.70;;;1.02;;
24273;SDS011;12392;42.678;23.380;2023-01-19T15:08:02;9.75;;;1.33;;
24273;SDS011;12392;42.678;23.380;2023-01-19T15:10:29;6.40;;;1.10;;
24273;SDS011;12392;42.678;23.380;2023-01-19T15:12:55;5.20;;;1.02;;
24273;SDS011;12392;42.678;23.380;2023-01-19T15:15:23;6.35;;;0.80;;
24273;SDS011;12392;42.678;23.380;2023-01-19T15:17:53;3.75;;;1.05;;
24273;SDS011;12392;42.678;23.380;2023-01-19T15:20:20;7.25;;;1.00;;
24273;SDS011;12392;42.678;23.380;2023-01-19T15:22:46;3.90;;;1.00;;
24273;SDS011;12392;42.678;23.380;2023-01-19T15:25:16;4.57;;;1.17;;
24273;SDS011;12392;42.678;23.380;2023-01-19T15:27:43;4.95;;;1.17;;
24273;SDS011;12392;42.678;23.380;2023-01-19T15:32:44;7.28;;;0.95;;
24273;SDS011;12392;42.678;23.380;2023-01-19T15:35:18;9.48;;;1.63;;
24273;SDS011;12392;42.678;23.380;2023-01-19T15:37:45;4.45;;;1.75;;
24273;SDS011;12392;42.678;23.380;2023-01-19T15:40:11;7.00;;;1.70;;
24273;SDS011;12392;42.678;23.380;2023-01-19T15:42:37;5.43;;;1.58;;
24273;SDS011;12392;42.678;23.380;2023-01-19T15:47:51;7.72;;;1.50;;
24273;SDS011;12392;42.678;23.380;2023-01-19T15:50:16;6.25;;;1.63;;
24273;SDS011;12392;42.678;23.380;2023-01-19T15:52:44;9.80;;;1.52;;
24273;SDS011;12392;42.678;23.380;2023-01-19T15:55:10;7.88;;;1.40;;
24273;SDS011;12392;42.678;23.380;2023-01-19T15:57:36;4.47;;;1.20;;
24273;SDS011;12392;42.678;23.380;2023-01-19T16:00:03;11.98;;;2.28;;
24273;SDS011;12392;42.678;23.380;2023-01-19T16:02:29;7.00;;;2.00;;
24273;SDS011;12392;42.678;23.380;2023-01-19T16:04:54;13.52;;;1.73;;
24273;SDS011;12392;42.678;23.380;2023-01-19T16:07:20;8.35;;;1.80;;
24273;SDS011;12392;42.678;23.380;2023-01-19T16:09:46;7.55;;;1.80;;
24273;SDS011;12392;42.678;23.380;2023-01-19T16:12:12;4.88;;;1.13;;
24273;SDS011;12392;42.678;23.380;2023-01-19T16:14:37;8.43;;;1.35;;
24273;SDS011;12392;42.678;23.380;2023-01-19T16:17:03;6.43;;;1.30;;
24273;SDS011;12392;42.678;23.380;2023-01-19T16:19:29;4.15;;;1.17;;